Time;durP1;ratioP1;P1;durP2;ratioP2;P2;SDS_P1;SDS_P2;PMS_P1;PMS_P2;Temp;Humidity;BMP_temperature;BMP_pressure;BME280_temperature;BME280_humidity;BME280_pressure;Samples;Min_cycle;Max_cycle;Signal;HPM_P1;HPM_P2
2023/01/09 00:00:12;;;;;;;5.47;2.03;;;;;;;;;;5007644;28;20464;-75
2023/01/09 00:02:39;;;;;;;4.70;2.10;;;;;;;;;;4988274;28;20417;-75
2023/01/09 00:05:09;;;;;;;4.60;1.48;;;;;;;;;;5004876;28;20432;-75
2023/01/09 00:07:35;;;;;;;4.07;1.40;;;;;;;;;;4979771;28;21126;-76
2023/01/09 00:10:01;;;;;;;4.32;1.70;;;;;;;;;;4990706;28;20420;-76
2023/01/09 00:12:28;;;;;;;2.70;1.27;;;;;;;;;;5032792;28;20455;-76
2023/01/09 00:14:54;;;;;;;3.97;1.02;;;;;;;;;;4975341;28;20436;-76
2023/01/09 00:17:20;;;;;;;4.35;1.35;;;;;;;;;;4992501;28;20431;-76
2023/01/09 00:19:46;;;;;;;3.20;1.25;;;;;;;;;;4980784;28;20429;-76
2023/01/09 00:22:12;;;;;;;3.22;1.20;;;;;;;;;;5021805;28;20457;-76
2023/01/09 00:24:38;;;;;;;4.32;1.20;;;;;;;;;;4991221;28;20420;-76
2023/01/09 00:27:04;;;;;;;2.83;1.17;;;;;;;;;;4990770;28;20433;-75
2023/01/09 00:29:30;;;;;;;2.42;1.10;;;;;;;;;;5023788;28;20427;-76
2023/01/09 00:31:56;;;;;;;2.72;1.10;;;;;;;;;;4974655;28;20478;-76
2023/01/09 00:34:23;;;;;;;2.67;1.00;;;;;;;;;;4995997;28;20425;-75
2023/01/09 00:36:53;;;;;;;2.97;1.17;;;;;;;;;;5021680;28;20413;-75
2023/01/09 00:39:20;;;;;;;2.55;0.90;;;;;;;;;;4983520;28;20439;-75
2023/01/09 00:41:48;;;;;;;3.25;1.00;;;;;;;;;;5010135;28;20461;-75
2023/01/09 00:44:42;;;;;;;2.03;0.80;;;6.80;99.90;;;;;;4993218;28;20417;-75
2023/01/09 00:47:12;;;;;;;2.08;0.77;;;;;;;;;;4989967;28;20493;-75
2023/01/09 00:49:38;;;;;;;1.60;0.70;;;;;;;;;;4991428;28;20727;-75
2023/01/09 00:52:06;;;;;;;3.07;1.00;;;;;;;;;;4988516;28;20433;-76
2023/01/09 00:54:32;;;;;;;4.10;0.90;;;;;;;;;;4991423;28;20435;-75
2023/01/09 00:56:58;;;;;;;2.00;0.93;;;;;;;;;;4993425;28;20424;-75
2023/01/09 00:59:26;;;;;;;3.13;1.00;;;;;;;;;;4980779;28;20511;-75
2023/01/09 01:01:52;;;;;;;2.85;1.10;;;;;;;;;;4994756;28;20467;-79
2023/01/09 01:09:47;;;;;;;3.05;1.63;;;;;;;;;;5019256;28;20803;-80
2023/01/09 01:12:13;;;;;;;3.65;1.90;;;;;;;;;;5015462;28;20431;-79
2023/01/09 01:14:40;;;;;;;5.18;1.70;;;;;;;;;;4996765;28;20912;-81
2023/01/09 01:17:06;;;;;;;3.40;1.67;;;;;;;;;;5026946;28;20432;-79
2023/01/09 01:19:33;;;;;;;4.97;2.03;;;;;;;;;;5008860;28;20429;-80
2023/01/09 01:21:59;;;;;;;4.50;2.08;;;;;;;;;;4994854;28;20420;-80
2023/01/09 01:24:25;;;;;;;7.60;2.30;;;;;;;;;;4993454;28;20884;-80
2023/01/09 01:26:51;;;;;;;5.32;2.50;;;;;;;;;;4993815;28;20807;-80
2023/01/09 01:29:17;;;;;;;6.20;2.70;;;;;;;;;;4996121;28;20804;-80
2023/01/09 01:31:43;;;;;;;5.43;2.40;;;;;;;;;;5010652;28;20491;-80
2023/01/09 01:34:09;;;;;;;6.30;2.53;;;;;;;;;;5023923;28;20412;-80
2023/01/09 01:36:35;;;;;;;5.72;2.35;;;;;;;;;;4988325;28;20497;-80
2023/01/09 01:39:01;;;;;;;6.03;2.55;;;;;;;;;;4989455;28;20448;-80
2023/01/09 01:41:30;;;;;;;6.82;3.00;;;;;;;;;;5040910;28;20433;-79
2023/01/09 01:43:58;;;;;;;6.90;2.75;;;;;;;;;;5008389;28;20457;-80
2023/01/09 01:46:24;;;;;;;5.63;2.93;;;;;;;;;;4993321;28;20428;-80
2023/01/09 01:48:58;;;;;;;5.30;2.90;;;;;;;;;;4995733;28;20423;-80
2023/01/09 01:51:25;;;;;;;6.97;2.88;;;6.90;99.90;;;;;;5008330;28;20476;-80
2023/01/09 01:53:52;;;;;;;6.90;2.72;;;;;;;;;;4989646;28;20421;-80
2023/01/09 01:56:24;;;;;;;8.00;3.05;;;;;;;;;;4994306;28;20788;-80
2023/01/09 01:59:24;;;;;;;5.80;2.80;;;6.80;99.90;;;;;;4990927;28;20929;-80
2023/01/09 02:01:54;;;;;;;8.87;2.87;;;6.80;99.90;;;;;;5027481;28;20453;-80
2023/01/09 02:04:20;;;;;;;6.63;2.90;;;;;;;;;;5025192;28;20421;-80
2023/01/09 02:06:47;;;;;;;5.88;2.80;;;;;;;;;;5013737;28;20403;-80
2023/01/09 02:09:16;;;;;;;4.97;2.95;;;6.80;99.90;;;;;;4984854;28;20421;-81
2023/01/09 02:11:46;;;;;;;6.27;2.80;;;;;;;;;;4971678;28;20517;-80
2023/01/09 02:14:13;;;;;;;7.90;3.10;;;;;;;;;;4995777;28;20420;-80
2023/01/09 02:16:48;;;;;;;8.68;2.90;;;;;;;;;;4992372;28;20424;-80
2023/01/09 02:19:47;;;;;;;6.93;2.95;;;6.60;99.90;;;;;;4988631;28;20517;-80
2023/01/09 02:22:24;;;;;;;5.32;3.00;;;;;;;;;;5058857;28;20423;-80
2023/01/09 02:25:09;;;;;;;7.65;3.10;;;;;;;;;;4989985;28;20504;-80
2023/01/09 02:27:44;;;;;;;7.43;3.22;;;;;;;;;;4998824;28;20916;-80
2023/01/09 02:30:10;;;;;;;8.03;3.83;;;;;;;;;;4998958;28;20417;-79
2023/01/09 02:32:44;;;;;;;22.02;5.32;;;;;;;;;;5029239;28;20483;-80
2023/01/09 02:35:10;;;;;;;7.68;3.00;;;;;;;;;;5042052;28;20448;-80
2023/01/09 02:37:37;;;;;;;7.25;3.15;;;;;;;;;;5025892;28;20394;-80
2023/01/09 02:40:23;;;;;;;7.53;3.40;;;;;;;;;;5000339;28;20448;-80
2023/01/09 02:42:53;;;;;;;9.70;3.13;;;;;;;;;;4983209;28;20931;-80
2023/01/09 02:45:19;;;;;;;7.97;3.33;;;;;;;;;;5002066;28;20425;-80
2023/01/09 02:47:46;;;;;;;7.60;3.20;;;;;;;;;;5032095;28;20915;-79
2023/01/09 02:50:18;;;;;;;8.65;3.30;;;6.30;99.90;;;;;;5010729;28;20435;-79
2023/01/09 02:52:46;;;;;;;8.95;3.70;;;;;;;;;;4990808;28;20438;-79
2023/01/09 02:55:40;;;;;;;9.13;4.10;;;6.30;99.90;;;;;;4978314;28;20571;-79
2023/01/09 02:58:06;;;;;;;9.13;3.47;;;;;;;;;;5002542;28;20502;-79
2023/01/09 03:00:40;;;;;;;7.32;3.38;;;;;;;;;;4990983;28;20475;-79
2023/01/09 03:03:20;;;;;;;9.57;3.70;;;;;;;;;;4992915;28;20431;-79
2023/01/09 03:05:53;;;;;;;8.18;3.38;;;;;;;;;;4991996;28;20499;-79
2023/01/09 03:08:20;;;;;;;6.93;3.25;;;;;;;;;;5025865;28;20460;-79
2023/01/09 03:10:50;;;;;;;8.02;3.53;;;;;;;;;;5002202;28;21171;-79
2023/01/09 03:13:18;;;;;;;9.40;3.90;;;;;;;;;;4999950;28;20963;-78
2023/01/09 03:15:48;;;;;;;11.00;3.65;;;;;;;;;;5019513;28;20421;-79
2023/01/09 03:18:15;;;;;;;8.63;3.50;;;;;;;;;;5007302;28;20976;-79
2023/01/09 03:20:42;;;;;;;7.97;3.90;;;;;;;;;;4976604;28;20525;-80
2023/01/09 03:23:08;;;;;;;9.77;3.65;;;;;;;;;;5009049;28;20428;-79
2023/01/09 03:25:34;;;;;;;8.40;3.20;;;;;;;;;;4981035;28;20421;-79
2023/01/09 03:28:02;;;;;;;9.75;3.60;;;;;;;;;;5023829;28;20428;-79
2023/01/09 03:30:30;;;;;;;10.50;3.70;;;6.10;99.90;;;;;;5003683;28;20424;-79
2023/01/09 03:32:57;;;;;;;11.45;3.80;;;;;;;;;;5000455;28;20424;-79
2023/01/09 03:35:23;;;;;;;9.55;3.70;;;;;;;;;;5013355;28;20443;-79
2023/01/09 03:37:50;;;;;;;9.48;4.07;;;;;;;;;;4997969;28;20429;-79
2023/01/09 03:40:17;;;;;;;9.40;4.35;;;;;;;;;;4990881;28;20912;-79
2023/01/09 03:42:43;;;;;;;12.00;4.30;;;;;;;;;;4990913;28;20427;-79
2023/01/09 03:45:09;;;;;;;9.38;4.28;;;;;;;;;;4999252;28;20443;-79
2023/01/09 03:47:35;;;;;;;10.73;4.20;;;;;;;;;;4975271;28;20477;-79
2023/01/09 03:50:01;;;;;;;9.07;4.65;;;;;;;;;;5016040;28;20424;-78
2023/01/09 03:52:27;;;;;;;9.52;4.20;;;;;;;;;;5023550;28;20417;-78
2023/01/09 03:54:53;;;;;;;9.25;4.72;;;;;;;;;;4979600;28;20500;-78
2023/01/09 03:57:19;;;;;;;13.70;4.88;;;;;;;;;;4992001;28;20443;-79
2023/01/09 03:59:46;;;;;;;10.65;4.68;;;;;;;;;;4991679;28;20951;-78
2023/01/09 04:02:12;;;;;;;10.50;5.00;;;;;;;;;;4989655;28;20427;-79
2023/01/09 04:04:38;;;;;;;9.23;4.75;;;;;;;;;;5066447;28;20429;-79
2023/01/09 04:07:04;;;;;;;10.10;5.23;;;;;;;;;;4986876;28;20428;-79
2023/01/09 04:09:30;;;;;;;12.82;5.65;;;;;;;;;;4990291;28;20431;-79
2023/01/09 04:11:56;;;;;;;59.92;10.25;;;;;;;;;;4997208;28;20420;-79
2023/01/09 04:14:22;;;;;;;13.23;5.80;;;;;;;;;;5006335;28;20512;-79
2023/01/09 04:16:48;;;;;;;11.55;5.70;;;;;;;;;;4991377;28;21019;-79
2023/01/09 04:19:14;;;;;;;12.30;6.03;;;;;;;;;;5005220;28;20747;-79
2023/01/09 04:21:40;;;;;;;13.10;5.68;;;;;;;;;;5005833;28;20457;-80
2023/01/09 04:24:07;;;;;;;15.20;6.40;;;;;;;;;;5008373;28;20425;-79
2023/01/09 04:26:33;;;;;;;11.90;6.18;;;;;;;;;;5051047;28;20421;-79
2023/01/09 04:28:59;;;;;;;12.93;6.65;;;;;;;;;;4976008;28;20912;-79
2023/01/09 04:31:28;;;;;;;12.98;6.50;;;;;;;;;;5003217;28;20854;-79
2023/01/09 04:33:54;;;;;;;13.13;6.68;;;;;;;;;;4990658;28;20595;-79
2023/01/09 04:36:20;;;;;;;13.95;6.90;;;;;;;;;;4972295;28;20425;-79
2023/01/09 04:38:46;;;;;;;15.82;7.45;;;;;;;;;;5018779;28;20425;-79
2023/01/09 04:41:47;;;;;;;16.17;7.47;;;;;;;;;;5024004;28;20981;-79
2023/01/09 04:43:58;;;;;;;13.60;7.07;;;;;;;;;;4990923;28;20485;-79
2023/01/09 04:46:24;;;;;;;16.05;7.72;;;;;;;;;;4992907;28;20489;-79
2023/01/09 04:48:50;;;;;;;13.70;8.00;;;;;;;;;;4989265;28;20413;-79
2023/01/09 04:51:16;;;;;;;15.32;8.15;;;;;;;;;;5042891;28;20424;-79
2023/01/09 04:53:42;;;;;;;14.83;7.60;;;;;;;;;;5007617;28;20451;-79
2023/01/09 04:56:08;;;;;;;17.60;8.38;;;;;;;;;;5022686;28;20503;-79
2023/01/09 04:58:34;;;;;;;15.73;8.50;;;;;;;;;;5003811;28;20436;-79
2023/01/09 05:01:00;;;;;;;18.03;9.23;;;;;;;;;;4989229;28;20997;-79
2023/01/09 05:03:26;;;;;;;17.73;9.73;;;;;;;;;;4979157;28;20419;-79
2023/01/09 05:05:52;;;;;;;18.10;9.85;;;;;;;;;;4988480;28;20489;-79
2023/01/09 05:08:18;;;;;;;20.38;10.82;;;;;;;;;;5031022;28;20459;-79
2023/01/09 05:10:44;;;;;;;20.15;11.30;;;;;;;;;;5093595;28;20453;-79
2023/01/09 05:13:10;;;;;;;21.40;11.77;;;;;;;;;;5015605;28;20428;-79
2023/01/09 05:15:36;;;;;;;26.15;15.13;;;;;;;;;;4993605;28;20463;-79
2023/01/09 05:18:02;;;;;;;25.00;12.93;;;;;;;;;;5018273;28;20428;-79
2023/01/09 05:20:28;;;;;;;23.80;13.57;;;;;;;;;;4991005;28;20487;-79
2023/01/09 05:22:55;;;;;;;23.48;13.82;;;;;;;;;;4990354;28;20758;-79
2023/01/09 05:25:21;;;;;;;23.98;14.63;;;;;;;;;;5033523;28;20409;-79
2023/01/09 05:27:47;;;;;;;25.65;14.25;;;;;;;;;;5005072;28;20433;-79
2023/01/09 05:30:13;;;;;;;22.95;14.77;;;;;;;;;;5013336;28;20444;-80
2023/01/09 05:32:39;;;;;;;26.50;14.55;;;;;;;;;;5098964;27;20421;-79
2023/01/09 05:35:06;;;;;;;26.48;15.98;;;;;;;;;;5026512;28;20425;-79
2023/01/09 05:37:32;;;;;;;24.55;15.98;;;;;;;;;;4993859;28;20405;-79
2023/01/09 05:39:58;;;;;;;24.45;16.70;;;;;;;;;;4994978;28;20440;-80
2023/01/09 05:42:24;;;;;;;26.42;16.35;;;;;;;;;;4977415;28;20429;-80
2023/01/09 05:44:50;;;;;;;28.50;18.35;;;;;;;;;;4998544;28;20407;-80
2023/01/09 05:47:16;;;;;;;35.13;19.00;;;;;;;;;;5011288;28;20418;-79
2023/01/09 05:49:42;;;;;;;30.20;17.98;;;;;;;;;;5010285;28;20883;-80
2023/01/09 05:52:08;;;;;;;27.63;18.55;;;;;;;;;;5008882;28;20421;-79
2023/01/09 05:54:34;;;;;;;27.63;18.65;;;;;;;;;;4985338;28;20428;-79
2023/01/09 05:57:00;;;;;;;28.95;19.63;;;;;;;;;;5015470;28;20430;-79
2023/01/09 05:59:26;;;;;;;30.55;19.10;;;;;;;;;;5002436;28;20478;-80
2023/01/09 06:01:53;;;;;;;28.70;18.52;;;;;;;;;;5024977;28;20476;-79
2023/01/09 06:04:19;;;;;;;29.70;17.92;;;;;;;;;;4995394;28;20443;-80
2023/01/09 06:06:45;;;;;;;28.60;18.30;;;;;;;;;;4994157;28;20475;-79
2023/01/09 06:09:11;;;;;;;30.90;18.08;;;;;;;;;;5024317;28;20500;-80
2023/01/09 06:11:37;;;;;;;27.50;17.60;;;;;;;;;;5036993;28;20452;-80
2023/01/09 06:14:04;;;;;;;26.83;17.80;;;;;;;;;;5025360;28;20501;-80
2023/01/09 06:16:30;;;;;;;27.55;17.70;;;;;;;;;;4999981;28;20429;-80
2023/01/09 06:18:56;;;;;;;27.47;17.53;;;;;;;;;;4993665;28;20472;-80
2023/01/09 06:21:22;;;;;;;27.10;16.92;;;;;;;;;;5009334;28;20445;-79
2023/01/09 06:23:48;;;;;;;27.25;16.98;;;;;;;;;;5025925;28;20431;-80
2023/01/09 06:26:15;;;;;;;24.85;15.70;;;;;;;;;;5025510;28;20985;-80
2023/01/09 06:28:41;;;;;;;25.63;16.40;;;;;;;;;;5011799;28;20435;-80
2023/01/09 06:31:07;;;;;;;32.13;18.63;;;;;;;;;;5039375;28;20413;-80
2023/01/09 06:33:33;;;;;;;27.90;17.58;;;;;;;;;;5042696;28;20405;-79
2023/01/09 06:35:59;;;;;;;30.20;18.13;;;;;;;;;;4988996;28;20419;-79
2023/01/09 06:38:25;;;;;;;32.25;17.67;;;;;;;;;;5047971;28;20439;-78
2023/01/09 06:40:51;;;;;;;41.72;19.15;;;;;;;;;;5055440;28;20768;-79
2023/01/09 06:43:17;;;;;;;25.40;17.13;;;;;;;;;;5021847;28;20462;-78
2023/01/09 06:45:43;;;;;;;26.17;16.48;;;;;;;;;;5012595;28;20912;-79
2023/01/09 06:48:10;;;;;;;41.30;16.55;;;;;;;;;;5009736;28;20488;-79
2023/01/09 06:50:36;;;;;;;27.10;15.52;;;;;;;;;;4992319;28;20423;-80
2023/01/09 06:53:02;;;;;;;33.80;17.27;;;;;;;;;;5008836;28;20443;-80
2023/01/09 06:55:28;;;;;;;37.93;17.30;;;;;;;;;;5022040;28;20718;-81
2023/01/09 06:57:54;;;;;;;53.95;18.40;;;;;;;;;;4991838;28;20448;-80
2023/01/09 07:00:20;;;;;;;25.42;15.30;;;;;;;;;;4981383;28;20433;-80
2023/01/09 07:02:47;;;;;;;23.10;14.68;;;;;;;;;;4993735;28;20757;-80
2023/01/09 07:05:13;;;;;;;23.58;15.32;;;;;;;;;;5009712;28;20409;-79
2023/01/09 07:07:40;;;;;;;33.20;15.82;;;;;;;;;;5017416;28;20773;-80
2023/01/09 07:10:06;;;;;;;24.27;15.02;;;;;;;;;;5012726;28;20517;-77
2023/01/09 07:12:32;;;;;;;22.75;14.57;;;;;;;;;;5016583;28;20426;-77
2023/01/09 07:14:58;;;;;;;24.42;15.25;;;;;;;;;;5006130;28;20780;-77
2023/01/09 07:17:24;;;;;;;23.90;15.00;;;;;;;;;;4988154;28;20456;-77
2023/01/09 07:19:51;;;;;;;24.63;14.15;;;;;;;;;;4992933;28;20838;-77
2023/01/09 07:22:17;;;;;;;28.40;15.57;;;;;;;;;;5019342;28;20488;-78
2023/01/09 07:24:43;;;;;;;22.77;15.30;;;;;;;;;;5025173;28;20412;-77
2023/01/09 07:27:10;;;;;;;22.33;14.57;;;;;;;;;;5036834;27;20432;-80
2023/01/09 07:29:36;;;;;;;23.92;14.88;;;;;;;;;;5024806;28;20440;-79
2023/01/09 07:32:03;;;;;;;31.42;15.45;;;;;;;;;;5030597;28;20424;-79
2023/01/09 07:34:29;;;;;;;25.77;14.88;;;;;;;;;;5026472;28;20512;-79
2023/01/09 07:36:56;;;;;;;25.48;15.40;;;;;;;;;;5012207;28;20512;-79
2023/01/09 07:39:22;;;;;;;24.57;14.43;;;;;;;;;;5007567;28;20499;-79
2023/01/09 07:41:48;;;;;;;24.25;14.85;;;;;;;;;;5061028;28;20436;-78
2023/01/09 07:44:14;;;;;;;24.40;14.43;;;;;;;;;;5024872;28;20413;-78
2023/01/09 07:46:40;;;;;;;24.08;13.43;;;;;;;;;;5021981;28;20426;-78
2023/01/09 07:49:06;;;;;;;19.85;12.40;;;;;;;;;;4994551;28;20415;-79
2023/01/09 07:51:32;;;;;;;18.30;12.07;;;;;;;;;;4992122;28;20494;-79
2023/01/09 07:54:02;;;;;;;19.90;11.40;;;;;;;;;;5040947;27;20440;-80
2023/01/09 07:56:28;;;;;;;19.48;10.93;;;;;;;;;;4994887;28;20770;-80
2023/01/09 07:58:54;;;;;;;17.13;10.75;;;;;;;;;;5004651;28;20420;-80
2023/01/09 08:01:20;;;;;;;19.27;10.37;;;;;;;;;;5005806;28;20785;-81
2023/01/09 08:03:46;;;;;;;19.42;10.63;;;;;;;;;;5025017;28;20429;-80
2023/01/09 08:06:12;;;;;;;19.77;10.45;;;;;;;;;;5030577;28;20423;-80
2023/01/09 08:08:38;;;;;;;17.38;10.43;;;;;;;;;;4987979;28;20455;-79
2023/01/09 08:11:04;;;;;;;18.08;10.18;;;;;;;;;;5022710;28;20417;-81
2023/01/09 08:13:30;;;;;;;17.90;9.95;;;;;;;;;;5047137;28;20473;-81
2023/01/09 08:15:56;;;;;;;20.38;9.82;;;;;;;;;;5004783;28;20436;-81
2023/01/09 08:18:23;;;;;;;18.17;10.30;;;;;;;;;;5032226;28;20425;-79
2023/01/09 08:20:49;;;;;;;20.58;10.60;;;;;;;;;;5046207;28;20428;-79
2023/01/09 08:23:15;;;;;;;19.95;10.20;;;;;;;;;;4999386;28;20425;-78
2023/01/09 08:25:41;;;;;;;21.83;10.68;;;;;;;;;;5011889;28;20459;-78
2023/01/09 08:28:08;;;;;;;19.30;10.38;;;;;;;;;;5021765;28;20772;-78
2023/01/09 08:30:34;;;;;;;18.85;9.82;;;;;;;;;;5021739;28;20943;-78
2023/01/09 08:33:00;;;;;;;18.55;9.35;;;;;;;;;;4974050;28;21636;-78
2023/01/09 08:35:26;;;;;;;16.70;9.18;;;;;;;;;;5010597;28;20425;-79
2023/01/09 08:37:52;;;;;;;17.20;10.33;;;;;;;;;;4992471;28;21044;-79
2023/01/09 08:40:18;;;;;;;15.98;9.38;;;;;;;;;;4994914;28;20963;-79
2023/01/09 08:48:15;;;;;;;20.60;9.33;;;;;;;;;;5003335;28;20421;-78
2023/01/09 08:50:42;;;;;;;15.25;8.32;;;;;;;;;;5020991;28;20420;-78
2023/01/09 08:53:08;;;;;;;15.63;8.13;;;;;;;;;;5084497;28;20419;-78
2023/01/09 08:55:34;;;;;;;15.93;8.55;;;;;;;;;;5026574;28;20424;-78
2023/01/09 08:58:00;;;;;;;17.95;8.60;;;;;;;;;;5023822;28;20456;-78
2023/01/09 09:00:27;;;;;;;17.80;8.32;;;;;;;;;;5045441;28;20486;-79
2023/01/09 09:02:54;;;;;;;16.10;8.68;;;;;;;;;;4981849;28;20454;-78
2023/01/09 09:05:21;;;;;;;16.60;8.02;;;6.40;99.90;;;;;;4997288;28;20425;-79
2023/01/09 09:07:48;;;;;;;14.45;7.80;;;;;;;;;;5010961;28;20428;-79
2023/01/09 09:10:15;;;;;;;13.23;7.47;;;;;;;;;;5032546;27;20915;-79
2023/01/09 09:12:42;;;;;;;17.52;7.50;;;;;;;;;;4992438;28;21058;-79
2023/01/09 09:15:11;;;;;;;14.20;7.18;;;6.00;99.90;;;;;;5006335;28;20432;-80
2023/01/09 09:17:39;;;;;;;13.88;7.05;;;;;;;;;;4989660;28;20431;-79
2023/01/09 09:20:05;;;;;;;13.82;7.00;;;;;;;;;;5033630;28;20425;-80
2023/01/09 09:22:32;;;;;;;14.32;7.85;;;;;;;;;;5080065;28;20417;-79
2023/01/09 09:24:58;;;;;;;19.07;7.50;;;;;;;;;;5004052;28;20833;-79
2023/01/09 09:27:24;;;;;;;13.60;6.80;;;;;;;;;;4992818;28;20427;-79
2023/01/09 09:29:50;;;;;;;15.35;6.80;;;;;;;;;;4990241;28;20427;-79
2023/01/09 09:32:16;;;;;;;14.05;7.20;;;;;;;;;;4993192;28;20421;-79
2023/01/09 09:34:42;;;;;;;13.10;6.38;;;;;;;;;;5012119;28;20430;-79
2023/01/09 09:37:08;;;;;;;15.48;6.82;;;;;;;;;;5053630;28;20392;-79
2023/01/09 09:39:34;;;;;;;13.23;6.82;;;;;;;;;;5005235;28;20428;-80
2023/01/09 09:45:01;;;;;;;13.48;6.72;;;;;;;;;;4988046;28;20425;-79
2023/01/09 09:47:44;;;;;;;12.13;6.38;;;;;;;;;;4979755;28;20427;-80
2023/01/09 09:50:19;;;;;;;13.63;5.68;;;;;;;;;;4982787;28;20426;-80
2023/01/09 09:53:03;;;;;;;12.82;6.30;;;;;;;;;;4980001;28;20475;-80
2023/01/09 09:55:34;;;;;;;11.82;6.18;;;;;;;;;;4993561;28;20432;-81
2023/01/09 09:58:06;;;;;;;11.50;5.72;;;;;;;;;;4985379;28;20452;-80
2023/01/09 10:00:32;;;;;;;12.95;5.88;;;;;;;;;;4989956;28;20437;-79
2023/01/09 10:03:03;;;;;;;12.43;5.40;;;;;;;;;;5016697;28;20421;-79
2023/01/09 10:05:32;;;;;;;12.38;5.72;;;;;;;;;;5009614;28;20417;-79
2023/01/09 10:08:02;;;;;;;12.77;6.07;;;;;;;;;;4979744;28;20499;-79
2023/01/09 10:10:43;;;;;;;12.03;5.50;;;;;;;;;;5004876;28;20413;-79
2023/01/09 10:16:00;;;;;;;10.70;5.15;;;;;;;;;;4991890;28;20434;-80
2023/01/09 10:18:46;;;;;;;10.77;5.68;;;;;;;;;;5006675;28;20423;-80
2023/01/09 10:21:16;;;;;;;8.65;5.30;;;;;;;;;;4999665;28;20868;-80
2023/01/09 10:23:42;;;;;;;11.10;5.43;;;;;;;;;;5005112;28;20486;-80
2023/01/09 10:26:12;;;;;;;9.77;6.03;;;;;;;;;;4995706;28;21005;-80
2023/01/09 10:28:54;;;;;;;10.57;5.35;;;;;;;;;;5006320;28;20421;-80
2023/01/09 10:31:23;;;;;;;10.88;5.43;;;;;;;;;;5009291;28;20433;-80
2023/01/09 10:33:49;;;;;;;9.38;5.32;;;;;;;;;;4992103;28;20432;-80
2023/01/09 10:36:24;;;;;;;10.67;5.10;;;;;;;;;;5006490;28;20428;-80
2023/01/09 10:38:54;;;;;;;10.32;5.07;;;6.90;99.90;;;;;;5045399;27;20421;-80
2023/01/09 10:41:39;;;;;;;11.82;5.28;;;;;;;;;;4988516;28;20475;-81
2023/01/09 10:44:34;;;;;;;11.35;5.50;;;7.00;99.90;;;;;;4984668;28;20563;-81
2023/01/09 10:47:01;;;;;;;13.40;7.22;;;;;;;;;;5001611;28;20425;-81
2023/01/09 10:49:28;;;;;;;14.63;6.18;;;;;;;;;;4989559;28;20416;-81
2023/01/09 10:52:12;;;;;;;10.73;5.55;;;;;;;;;;5018350;28;20497;-81
2023/01/09 10:54:41;;;;;;;11.47;5.63;;;;;;;;;;4997294;28;20424;-81
2023/01/09 10:57:13;;;;;;;12.70;6.20;;;;;;;;;;4976899;28;20481;-81
2023/01/09 10:59:40;;;;;;;11.23;5.80;;;7.10;99.90;;;;;;4996006;28;20425;-81
2023/01/09 11:02:30;;;;;;;14.30;6.90;;;7.10;99.90;;;;;;4976123;28;20440;-81
2023/01/09 11:04:56;;;;;;;11.10;5.68;;;;;;;;;;5027509;28;20430;-81
2023/01/09 11:07:24;;;;;;;12.35;5.85;;;;;;;;;;5009137;28;20419;-80
2023/01/09 11:10:06;;;;;;;13.88;7.07;;;;;;;;;;4987669;28;20989;-79
2023/01/09 11:12:33;;;;;;;11.43;6.20;;;;;;;;;;5022627;28;20793;-80
2023/01/09 11:15:28;;;;;;;13.37;6.50;;;7.10;99.90;;;;;;5004265;28;20423;-79
2023/01/09 11:18:14;;;;;;;14.60;7.38;;;7.20;99.90;;;;;;5094499;28;20892;-79
2023/01/09 11:20:41;;;;;;;13.60;6.40;;;;;;;;;;5094287;28;20469;-79
2023/01/09 11:23:22;;;;;;;12.85;7.13;;;;;;;;;;5011227;28;20440;-80
2023/01/09 11:25:52;;;;;;;12.20;6.40;;;;;;;;;;5008256;28;20773;-81
2023/01/09 11:28:18;;;;;;;14.13;7.10;;;;;;;;;;5034158;28;20416;-81
2023/01/09 11:30:52;;;;;;;11.45;6.60;;;;;;;;;;4980838;28;20441;-81
2023/01/09 11:33:20;;;;;;;14.90;7.22;;;;;;;;;;4998349;28;20432;-80
2023/01/09 11:35:53;;;;;;;14.63;7.00;;;7.30;99.90;;;;;;5000230;28;20493;-81
2023/01/09 11:38:20;;;;;;;13.15;8.52;;;;;;;;;;5004595;28;20406;-81
2023/01/09 11:40:57;;;;;;;13.97;6.87;;;;;;;;;;4971862;28;20483;-79
2023/01/09 11:43:29;;;;;;;13.13;6.93;;;7.30;99.90;;;;;;5018887;28;20424;-80
2023/01/09 11:45:56;;;;;;;11.70;6.80;;;;;;;;;;5027089;28;20499;-81
2023/01/09 11:48:51;;;;;;;13.13;6.93;;;6.90;99.90;;;;;;5013025;28;20435;-81
2023/01/09 11:51:22;;;;;;;13.40;6.63;;;;;;;;;;4990082;28;20517;-80
2023/01/09 11:54:19;;;;;;;13.43;6.97;;;7.40;99.90;;;;;;5007522;28;20464;-80
2023/01/09 11:56:46;;;;;;;12.00;7.40;;;;;;;;;;5030073;28;20424;-80
2023/01/09 11:59:13;;;;;;;12.80;7.32;;;;;;;;;;4993566;28;20424;-80
2023/01/09 12:01:51;;;;;;;11.30;6.88;;;;;;;;;;5045412;28;20420;-80
2023/01/09 12:04:22;;;;;;;14.07;7.60;;;;;;;;;;5000077;28;20482;-80
2023/01/09 12:07:03;;;;;;;11.48;6.95;;;;;;;;;;5042069;28;20408;-80
2023/01/09 12:09:32;;;;;;;12.80;7.78;;;;;;;;;;5006750;28;20509;-80
2023/01/09 12:12:08;;;;;;;14.88;7.55;;;;;;;;;;5054263;28;20416;-80
2023/01/09 12:14:43;;;;;;;11.57;7.03;;;;;;;;;;5089035;28;20463;-80
2023/01/09 12:17:09;;;;;;;12.82;7.38;;;;;;;;;;5080874;28;20474;-81
2023/01/09 12:19:41;;;;;;;13.40;7.43;;;;;;;;;;5002756;28;20482;-80
2023/01/09 12:22:32;;;;;;;13.88;7.53;;;7.50;99.90;;;;;;5004144;28;20429;-80
2023/01/09 12:25:01;;;;;;;12.02;7.10;;;;;;;;;;5025705;28;20417;-79
2023/01/09 12:27:27;;;;;;;12.63;7.50;;;;;;;;;;5064219;28;20895;-80
2023/01/09 12:29:59;;;;;;;15.75;7.95;;;;;;;;;;5009468;28;20421;-79
2023/01/09 12:32:35;;;;;;;11.80;7.65;;;;;;;;;;5019396;28;20431;-80
2023/01/09 12:35:24;;;;;;;11.40;7.88;;;7.70;99.90;;;;;;5001648;28;20496;-80
2023/01/09 12:38:06;;;;;;;14.85;8.15;;;;;;;;;;5038619;28;20416;-80
2023/01/09 12:40:34;;;;;;;12.63;8.23;;;;;;;;;;5042158;28;20430;-79
2023/01/09 12:43:00;;;;;;;14.32;8.80;;;;;;;;;;5029628;28;20409;-79
2023/01/09 12:45:46;;;;;;;15.35;8.52;;;;;;;;;;4995234;28;20420;-80
2023/01/09 12:48:41;;;;;;;14.68;8.90;;;7.80;99.90;;;;;;4979777;28;20428;-80
2023/01/09 12:51:10;;;;;;;12.65;8.10;;;;;;;;;;4996932;28;20416;-80
2023/01/09 12:53:46;;;;;;;14.77;8.73;;;;;;;;;;4995859;28;20504;-80
2023/01/09 12:56:20;;;;;;;12.90;8.38;;;7.90;99.90;;;;;;5011711;28;20412;-80
2023/01/09 12:58:50;;;;;;;13.90;9.23;;;;;;;;;;5010855;28;20459;-81
2023/01/09 13:01:19;;;;;;;12.90;8.40;;;;;;;;;;5010410;28;20430;-80
2023/01/09 13:03:45;;;;;;;15.15;9.20;;;;;;;;;;5014718;28;20412;-80
2023/01/09 13:06:14;;;;;;;14.37;8.97;;;;;;;;;;5084153;28;20488;-80
2023/01/09 13:08:48;;;;;;;13.80;9.30;;;7.70;99.90;;;;;;4997724;28;20424;-80
2023/01/09 13:11:33;;;;;;;15.27;9.43;;;7.80;99.90;;;;;;4994419;28;20432;-80
2023/01/09 13:14:05;;;;;;;14.45;9.52;;;;;;;;;;5027006;28;20404;-80
2023/01/09 13:16:40;;;;;;;15.30;9.85;;;;;;;;;;4994387;28;20452;-80
2023/01/09 13:19:25;;;;;;;16.00;9.27;;;;;;;;;;5035756;28;20461;-80
2023/01/09 13:21:51;;;;;;;13.57;9.48;;;;;;;;;;5052014;28;20451;-80
2023/01/09 13:24:26;;;;;;;16.13;9.52;;;;;;;;;;5038889;28;20417;-79
2023/01/09 13:27:00;;;;;;;15.05;9.13;;;;;;;;;;5025452;27;20426;-79
2023/01/09 13:29:38;;;;;;;15.05;9.27;;;8.00;99.90;;;;;;4994201;28;20757;-79
2023/01/09 13:32:18;;;;;;;14.13;8.67;;;;;;;;;;4990180;28;20892;-80
2023/01/09 13:34:46;;;;;;;16.05;9.32;;;;;;;;;;4991152;28;20470;-81
2023/01/09 13:37:24;;;;;;;17.00;8.90;;;;;;;;;;4986728;28;20438;-80
2023/01/09 13:40:01;;;;;;;14.23;8.63;;;;;;;;;;5009377;28;20434;-81
2023/01/09 13:42:45;;;;;;;15.10;8.13;;;;;;;;;;4997859;28;20425;-78
2023/01/09 13:45:19;;;;;;;14.60;7.93;;;;;;;;;;5010220;28;20452;-79
2023/01/09 13:47:45;;;;;;;14.93;6.88;;;;;;;;;;4998025;28;20425;-80
2023/01/09 13:50:23;;;;;;;14.70;7.60;;;;;;;;;;5030178;28;20456;-81
2023/01/09 13:52:49;;;;;;;14.43;7.57;;;;;;;;;;5029423;28;20429;-80
2023/01/09 13:55:15;;;;;;;13.65;6.78;;;;;;;;;;5061129;28;20504;-80
2023/01/09 13:57:42;;;;;;;16.60;7.05;;;;;;;;;;5021063;27;20818;-80
2023/01/09 14:00:11;;;;;;;13.45;6.30;;;;;;;;;;4986622;28;20468;-80
2023/01/09 14:02:38;;;;;;;11.85;6.22;;;;;;;;;;5014022;28;20469;-80
2023/01/09 14:05:11;;;;;;;13.60;6.07;;;;;;;;;;4985721;28;20515;-80
2023/01/09 14:07:48;;;;;;;15.93;6.10;;;;;;;;;;5043626;28;20477;-80
2023/01/09 14:10:20;;;;;;;14.70;5.80;;;;;;;;;;4988790;28;20437;-80
2023/01/09 14:12:46;;;;;;;12.57;5.05;;;;;;;;;;5024075;28;20425;-80
2023/01/09 14:15:34;;;;;;;12.38;5.05;;;;;;;;;;5020905;28;20927;-80
2023/01/09 14:18:03;;;;;;;13.98;4.80;;;8.30;99.90;;;;;;5002093;28;21027;-80
2023/01/09 14:20:32;;;;;;;13.40;4.97;;;;;;;;;;5026379;28;20758;-80
2023/01/09 14:22:59;;;;;;;12.67;4.47;;;;;;;;;;4979130;28;20429;-80
2023/01/09 14:25:27;;;;;;;14.32;4.45;;;;;;;;;;5004264;28;20472;-80
2023/01/09 14:27:53;;;;;;;12.07;4.13;;;;;;;;;;5033427;27;20814;-80
2023/01/09 14:30:26;;;;;;;11.33;4.47;;;;;;;;;;5009109;28;20460;-80
2023/01/09 14:32:58;;;;;;;15.57;4.40;;;;;;;;;;5069785;27;20906;-79
2023/01/09 14:35:42;;;;;;;11.77;4.60;;;8.40;99.90;;;;;;4998345;28;20482;-80
2023/01/09 14:38:11;;;;;;;11.55;3.92;;;;;;;;;;5025557;28;21057;-79
2023/01/09 14:40:38;;;;;;;12.85;4.20;;;;;;;;;;5037464;28;20421;-79
2023/01/09 14:43:12;;;;;;;14.93;4.15;;;;;;;;;;5029672;27;20425;-80
2023/01/09 14:45:39;;;;;;;15.60;4.10;;;;;;;;;;4991372;28;20746;-80
2023/01/09 14:48:08;;;;;;;14.77;4.40;;;;;;;;;;4979007;28;20425;-80
2023/01/09 14:50:46;;;;;;;14.35;3.40;;;;;;;;;;5025808;28;20412;-80